Time;durP1;ratioP1;P1;durP2;ratioP2;P2;SDS_P1;SDS_P2;PMS_P1;PMS_P2;Temp;Humidity;BMP_temperature;BMP_pressure;BME280_temperature;BME280_humidity;BME280_pressure;Samples;Min_cycle;Max_cycle;Signal;HPM_P1;HPM_P2
2022/04/27 00:00:30;;;;;;;5.00;3.00;;;;;;;15.02;69.62;99205.16;4965249;28;20032;-88
2022/04/27 00:02:56;;;;;;;7.60;2.90;;;;;;;15.04;69.08;99214.59;4981530;28;20029;-87
2022/04/27 00:05:22;;;;;;;6.15;3.30;;;;;;;15.09;69.16;99211.00;4981390;28;20546;-87
2022/04/27 00:07:48;;;;;;;12.50;3.10;;;;;;;14.97;70.16;99202.56;4981648;28;20502;-87
2022/04/27 00:10:14;;;;;;;7.00;3.00;;;;;;;14.86;70.09;99199.25;4965225;28;20025;-88
2022/04/27 00:12:40;;;;;;;5.80;3.60;;;;;;;14.99;70.00;99213.91;4965522;28;20025;-87
2022/04/27 00:15:06;;;;;;;8.05;3.42;;;;;;;14.86;71.11;99210.09;4965126;28;20030;-87
2022/04/27 00:17:32;;;;;;;7.75;3.10;;;;;;;14.71;71.54;99205.75;4964733;28;20060;-87
2022/04/27 00:19:57;;;;;;;4.70;3.17;;;;;;;14.71;71.24;99208.47;4981151;28;20042;-86
2022/04/27 00:22:22;;;;;;;6.63;3.38;;;;;;;14.51;71.99;99223.19;4981375;28;20030;-87
2022/04/27 00:24:48;;;;;;;3.85;3.00;;;;;;;14.52;71.19;99225.56;4964565;28;20073;-86
2022/04/27 00:27:14;;;;;;;7.10;3.17;;;;;;;14.59;71.08;99224.41;4980993;28;20100;-87
2022/04/27 00:29:40;;;;;;;8.85;3.00;;;;;;;14.64;70.48;99238.69;4980787;28;20552;-86
2022/04/27 00:32:06;;;;;;;5.70;2.90;;;;;;;14.64;70.23;99238.69;4964677;28;20484;-87
2022/04/27 00:34:31;;;;;;;6.90;3.80;;;;;;;14.52;71.20;99244.53;4980896;28;20124;-87
2022/04/27 00:36:57;;;;;;;4.78;2.90;;;;;;;14.33;72.28;99247.28;4981073;28;20022;-87
2022/04/27 00:39:22;;;;;;;6.20;2.97;;;;;;;14.18;72.83;99241.34;4997022;28;20026;-86
2022/04/27 00:42:00;;;;;;;5.05;3.15;;;;;;;14.13;72.36;99232.19;4981108;28;20053;-87
2022/04/27 00:44:29;;;;;;;11.40;3.20;;;;;;;14.10;72.86;99231.97;4967670;28;20025;-87
2022/04/27 00:46:54;;;;;;;5.88;4.43;;;;;;;14.04;72.72;99231.25;4980865;28;20022;-87
2022/04/27 00:49:20;;;;;;;7.85;3.30;;;;;;;14.00;73.39;99230.22;4964592;28;20033;-87
2022/04/27 00:51:46;;;;;;;7.03;3.55;;;;;;;13.87;74.00;99225.56;4980399;28;20029;-86
2022/04/27 00:54:12;;;;;;;8.13;3.08;;;;;;;13.91;74.09;99229.28;4980574;28;20522;-87
2022/04/27 00:56:37;;;;;;;7.82;3.53;;;;;;;14.02;72.75;99244.28;4980414;28;20049;-86
2022/04/27 00:59:03;;;;;;;6.75;3.45;;;;;;;13.73;74.74;99231.69;5012933;28;20022;-87
2022/04/27 01:01:29;;;;;;;9.40;3.80;;;;;;;13.69;74.51;99244.22;4979612;28;20026;-86
2022/04/27 01:03:54;;;;;;;7.00;4.32;;;;;;;13.65;74.26;99240.47;4964180;28;20519;-87
2022/04/27 01:06:21;;;;;;;8.63;3.88;;;;;;;13.59;74.88;99240.84;4980229;28;20176;-87
2022/04/27 01:08:46;;;;;;;4.97;3.88;;;;;;;13.49;75.24;99231.78;4964213;28;20129;-87
2022/04/27 01:11:12;;;;;;;7.97;3.95;;;;;;;13.44;75.14;99223.72;4980232;28;20029;-87
2022/04/27 01:13:38;;;;;;;6.43;4.03;;;;;;;13.46;74.82;99228.84;4963943;28;20033;-87
2022/04/27 01:16:05;;;;;;;10.05;4.10;;;;;;;13.42;75.41;99231.31;4963682;28;20092;-87
2022/04/27 01:18:30;;;;;;;5.38;3.90;;;;;;;13.42;75.67;99225.91;4995960;28;20492;-87
2022/04/27 01:20:56;;;;;;;6.70;4.20;;;;;;;13.43;75.68;99226.75;4979960;28;20096;-86
2022/04/27 01:23:22;;;;;;;9.38;4.05;;;;;;;13.45;75.09;99233.47;4963568;28;20443;-87
2022/04/27 01:26:05;;;;;;;4.22;3.60;;;;;;;13.48;74.80;99227.44;4977468;28;20531;-86
2022/04/27 01:28:31;;;;;;;9.23;4.35;;;;;;;13.46;74.86;99226.94;4981409;28;20034;-87
2022/04/27 01:30:57;;;;;;;11.50;4.05;;;;;;;13.47;74.54;99236.69;5012052;28;20025;-87
2022/04/27 01:33:23;;;;;;;7.78;4.95;;;;;;;13.29;75.81;99232.03;4995440;28;20508;-87
2022/04/27 01:35:48;;;;;;;5.28;3.97;;;;;;;13.32;75.16;99234.97;4963527;28;20038;-87
2022/04/27 01:38:17;;;;;;;7.63;4.13;;;;;;;13.35;75.57;99252.53;5013287;28;20025;-86
2022/04/27 01:40:43;;;;;;;6.88;3.55;;;;;;;13.33;75.12;99249.28;4981207;28;20049;-87
2022/04/27 01:43:08;;;;;;;5.60;3.90;;;;;;;13.23;76.02;99252.09;4963299;28;20569;-86
2022/04/27 01:45:34;;;;;;;9.95;4.32;;;;;;;13.14;76.34;99249.22;4995681;28;20104;-87
2022/04/27 01:47:59;;;;;;;7.07;3.80;;;;;;;13.24;75.71;99240.16;4979405;28;20484;-87
2022/04/27 01:50:25;;;;;;;8.82;3.80;;;;;;;13.23;75.70;99244.78;4979488;28;20503;-87
2022/04/27 01:55:35;;;;;;;5.13;3.72;;;;;;;13.14;76.11;99235.72;4998415;28;20032;-86
2022/04/27 01:58:01;;;;;;;5.80;4.18;;;;;;;13.11;76.31;99236.28;4979271;28;20463;-86
2022/04/27 02:00:26;;;;;;;7.25;3.65;;;;;;;13.02;76.14;99238.00;4979648;28;20026;-87
2022/04/27 02:02:52;;;;;;;8.40;3.78;;;;;;;12.99;76.02;99236.69;4995217;28;20029;-87
2022/04/27 02:05:17;;;;;;;6.78;3.70;;;;;;;12.94;75.84;99244.84;4979249;28;20083;-87
2022/04/27 02:07:45;;;;;;;9.43;3.35;;;;;;;12.86;75.74;99246.28;4963196;28;20029;-86
2022/04/27 02:10:11;;;;;;;6.43;3.72;;;;;;;12.79;75.95;99251.22;4995517;28;20033;-87
2022/04/27 02:12:36;;;;;;;6.82;3.35;;;;;;;12.74;75.71;99256.66;4962569;28;20496;-86
2022/04/27 02:15:02;;;;;;;7.72;3.45;;;;;;;12.70;75.47;99245.66;4995392;28;20029;-87
2022/04/27 02:17:28;;;;;;;5.35;3.00;;;;;;;12.79;75.16;99245.03;4979001;28;20476;-86
2022/04/27 02:19:53;;;;;;;5.15;3.40;;;;;;;12.78;75.36;99251.50;4978676;28;20030;-87
2022/04/27 02:22:19;;;;;;;7.45;3.53;;;;;;;12.72;75.61;99250.75;4995222;28;20069;-86
2022/04/27 02:24:44;;;;;;;8.20;3.50;;;;;;;12.72;75.48;99262.38;4994756;28;20042;-87
2022/04/27 02:27:10;;;;;;;10.02;3.70;;;;;;;12.62;76.43;99267.88;4994904;28;20018;-87
2022/04/27 02:29:36;;;;;;;9.38;3.80;;;;;;;12.53;76.21;99258.75;4995503;28;20472;-87
2022/04/27 02:32:02;;;;;;;9.45;3.88;;;;;;;12.49;76.36;99261.25;4979101;28;20053;-87
2022/04/27 02:34:27;;;;;;;8.20;4.40;;;;;;;12.51;76.10;99263.63;4979102;28;20492;-87
2022/04/27 02:36:53;;;;;;;8.30;4.10;;;;;;;12.58;76.26;99266.81;4978629;28;20095;-87
2022/04/27 02:39:18;;;;;;;11.80;3.60;;;;;;;12.66;75.81;99273.53;5012588;28;20032;-87
2022/04/27 02:41:44;;;;;;;7.68;3.42;;;;;;;12.68;75.85;99257.84;4962847;28;20085;-87
2022/04/27 02:44:10;;;;;;;6.97;3.70;;;;;;;12.72;75.35;99261.53;4994756;28;20030;-87
2022/04/27 02:46:37;;;;;;;7.57;3.17;;;;;;;12.59;75.53;99270.31;4994671;28;20415;-87
2022/04/27 02:51:49;;;;;;;10.82;4.13;;;;;;;12.30;75.81;99255.69;4984045;28;20032;-87
2022/04/27 02:54:19;;;;;;;5.93;4.05;;;;;;;12.34;75.50;99264.84;4995375;28;20033;-87
2022/04/27 02:56:45;;;;;;;8.63;3.70;;;;;;;12.34;75.74;99272.16;4978676;28;20029;-87
2022/04/27 02:59:11;;;;;;;6.75;4.05;;;;;;;12.21;76.15;99273.59;4978916;28;20108;-87
2022/04/27 03:01:38;;;;;;;7.72;4.05;;;;;;;12.22;76.38;99279.81;4978741;28;20093;-85
2022/04/27 03:04:04;;;;;;;10.13;4.30;;;;;;;12.12;76.17;99276.09;4995147;28;20034;-86
2022/04/27 03:06:30;;;;;;;8.98;4.03;;;;;;;12.04;76.63;99281.31;4978701;28;20032;-87
2022/04/27 03:08:55;;;;;;;9.60;4.43;;;;;;;11.98;76.56;99274.31;4994864;28;20485;-86
2022/04/27 03:11:21;;;;;;;18.27;4.22;;;;;;;11.93;76.86;99278.66;5012020;28;20030;-85
2022/04/27 03:13:46;;;;;;;7.10;4.40;;;;;;;11.91;75.87;99280.00;4978754;28;20109;-88
2022/04/27 03:16:12;;;;;;;8.40;4.03;;;;;;;11.96;75.39;99284.59;4978415;28;20092;-86
2022/04/27 03:18:38;;;;;;;6.15;3.92;;;;;;;11.85;76.15;99283.78;4978451;28;20030;-87
2022/04/27 03:21:03;;;;;;;12.90;4.22;;;;;;;11.75;76.04;99283.88;4979037;28;20489;-87
2022/04/27 03:23:29;;;;;;;12.23;4.22;;;;;;;11.68;76.33;99287.69;4978696;28;20018;-87
2022/04/27 03:25:55;;;;;;;11.90;4.22;;;;;;;11.66;75.93;99289.03;4980578;28;20046;-87
2022/04/27 03:28:21;;;;;;;15.02;4.90;;;;;;;11.65;76.31;99290.13;4981978;28;20026;-87
2022/04/27 03:30:49;;;;;;;14.50;4.25;;;;;;;11.67;76.00;99298.75;4998233;28;20503;-86
2022/04/27 03:33:15;;;;;;;11.23;4.10;;;;;;;11.75;76.06;99292.78;4998503;28;20033;-88
2022/04/27 03:35:41;;;;;;;8.00;4.22;;;;;;;11.72;76.46;99293.31;4981976;28;20524;-89
2022/04/27 03:38:08;;;;;;;10.32;4.40;;;;;;;11.75;76.03;99291.97;4981688;28;20118;-88
2022/04/27 03:40:34;;;;;;;9.73;4.13;;;;;;;11.86;75.56;99302.41;4982181;28;20030;-88
2022/04/27 03:42:59;;;;;;;13.77;4.72;;;;;;;11.89;75.65;99307.28;4965784;28;20125;-87
2022/04/27 03:45:25;;;;;;;14.30;5.65;;;;;;;11.97;75.65;99310.47;4982089;28;20525;-89
2022/04/27 03:47:50;;;;;;;14.52;5.70;;;;;;;12.01;75.17;99301.53;4965274;28;20504;-88
2022/04/27 03:50:16;;;;;;;22.55;6.88;;;;;;;12.11;75.12;99309.56;4998077;28;20591;-89
2022/04/27 03:52:42;;;;;;;16.15;7.93;;;;;;;12.18;74.99;99317.38;4966101;28;20022;-88
2022/04/27 03:55:08;;;;;;;21.73;8.55;;;;;;;12.22;75.17;99320.28;4986112;28;20542;-88
2022/04/27 03:57:33;;;;;;;15.73;9.32;;;;;;;12.31;74.73;99332.94;4997582;28;20030;-88
2022/04/27 03:59:59;;;;;;;18.40;11.02;;;;;;;12.19;75.20;99323.56;4998114;28;20129;-88
2022/04/27 04:02:24;;;;;;;19.67;12.10;;;;;;;12.24;75.95;99327.06;5014445;28;20026;-87
2022/04/27 04:04:50;;;;;;;23.70;12.55;;;;;;;12.31;75.63;99329.44;4981619;28;20033;-88
2022/04/27 04:07:15;;;;;;;23.92;12.60;;;;;;;12.29;76.35;99329.69;4997364;28;20026;-89
2022/04/27 04:09:41;;;;;;;25.67;13.40;;;;;;;12.33;76.15;99328.06;4965835;28;20084;-88
2022/04/27 04:12:10;;;;;;;22.00;14.50;;;;;;;12.25;76.71;99338.66;4982475;28;20033;-87
2022/04/27 04:14:36;;;;;;;24.45;13.88;;;;;;;12.10;76.61;99339.56;4967351;28;20490;-92
2022/04/27 04:17:02;;;;;;;39.45;14.95;;;;;;;12.13;75.74;99334.38;4967911;28;20014;-96
2022/04/27 04:19:28;;;;;;;22.55;9.68;;;;;;;12.08;75.04;99342.53;4969277;28;20116;-92
2022/04/27 04:21:54;;;;;;;15.05;8.15;;;;;;;12.10;75.10;99334.97;4969414;28;20030;-93
2022/04/27 04:24:19;;;;;;;24.33;9.73;;;;;;;12.15;74.73;99344.91;4969374;28;20025;-93
2022/04/27 04:29:31;;;;;;;24.13;12.90;;;;;;;12.12;75.08;99348.19;4989882;28;20033;-92
2022/04/27 04:31:57;;;;;;;18.70;10.13;;;;;;;12.09;75.48;99341.44;4971490;28;20030;-91
2022/04/27 04:34:23;;;;;;;20.63;11.13;;;;;;;12.07;75.72;99335.50;4967568;28;20087;-92
2022/04/27 04:36:48;;;;;;;21.10;11.27;;;;;;;12.09;75.82;99346.81;4966670;28;20404;-91
2022/04/27 04:39:14;;;;;;;20.73;10.23;;;;;;;12.24;75.23;99348.66;4983542;28;20483;-92
2022/04/27 04:41:41;;;;;;;23.02;10.90;;;;;;;12.36;75.34;99363.69;4979684;28;20507;-93
2022/04/27 04:44:06;;;;;;;30.88;12.13;;;;;;;12.37;75.01;99373.38;5000796;28;20084;-94
2022/04/27 04:46:32;;;;;;;25.85;13.20;;;;;;;12.29;75.42;99367.50;4969879;28;20061;-92
2022/04/27 04:48:57;;;;;;;28.55;13.48;;;;;;;12.30;75.64;99368.28;4970868;28;20037;-92
2022/04/27 04:51:23;;;;;;;33.78;15.35;;;;;;;12.36;75.72;99375.28;4988327;28;20176;-95
2022/04/27 04:53:48;;;;;;;30.70;13.80;;;;;;;12.46;75.03;99382.50;4971232;28;20009;-94
2022/04/27 04:56:14;;;;;;;30.83;13.77;;;;;;;12.35;75.00;99365.59;4988268;28;20033;-92
2022/04/27 04:58:42;;;;;;;27.52;13.77;;;;;;;12.49;75.28;99374.66;4973667;28;20021;-90
2022/04/27 05:01:09;;;;;;;28.65;14.82;;;;;;;12.46;74.53;99364.41;4972959;28;20042;-89
2022/04/27 05:03:37;;;;;;;25.80;12.20;;;;;;;12.69;74.49;99383.69;4985164;28;20042;-89
2022/04/27 05:06:05;;;;;;;28.30;12.80;;;;;;;12.77;74.25;99385.78;4983685;28;20022;-90
2022/04/27 05:08:36;;;;;;;25.55;13.25;;;;;;;12.83;74.39;99378.47;4965733;28;20045;-90
2022/04/27 05:11:02;;;;;;;23.85;12.35;;;;;;;12.84;74.30;99370.06;4983374;28;20029;-89
2022/04/27 05:13:27;;;;;;;34.63;11.10;;;;;;;13.04;74.06;99379.88;4979812;28;20026;-89
2022/04/27 05:15:53;;;;;;;16.63;10.50;;;;;;;13.10;72.85;99376.03;4980570;28;20074;-89
2022/04/27 05:18:21;;;;;;;31.27;12.77;;;;;;;13.27;72.83;99391.03;4963607;28;20451;-88
2022/04/27 05:20:47;;;;;;;111.10;49.30;;;;;;;13.25;72.64;99379.69;4987857;28;20040;-90
2022/04/27 05:23:12;;;;;;;39.78;17.67;;;;;;;13.32;72.34;99372.06;4971157;28;20121;-89
2022/04/27 05:25:38;;;;;;;15.25;9.00;;;;;;;13.50;71.33;99381.34;4984258;28;20077;-87
2022/04/27 05:28:04;;;;;;;22.23;10.88;;;;;;;13.69;71.47;99393.03;4966066;28;20026;-91
2022/04/27 05:33:17;;;;;;;25.65;10.73;;;;;;;13.88;70.27;99390.38;4988522;28;20444;-90
2022/04/27 05:35:45;;;;;;;30.73;10.57;;;;;;;13.93;70.57;99392.22;4983447;28;20018;-87
2022/04/27 05:38:14;;;;;;;16.35;9.75;;;;;;;14.04;69.42;99392.88;5000601;28;20072;-87
2022/04/27 05:40:42;;;;;;;30.92;13.02;;;;;;;14.19;68.58;99398.09;5001522;28;20053;-87
2022/04/27 05:43:08;;;;;;;19.65;12.90;;;;;;;14.18;68.63;99382.16;4986431;28;20026;-87
2022/04/27 05:45:34;;;;;;;144.18;15.65;;;;;;;14.32;68.25;99391.16;4964981;28;20181;-86
2022/04/27 05:48:13;;;;;;;14.57;8.90;;;;;;;14.27;67.93;99367.66;4952873;28;20061;-88
2022/04/27 05:50:40;;;;;;;16.42;9.70;;;;;;;14.46;67.52;99380.38;4983671;28;20056;-88
2022/04/27 05:53:06;;;;;;;25.15;9.38;;;;;;;14.65;67.06;99385.81;4963796;28;20045;-87
2022/04/27 05:55:31;;;;;;;14.77;8.32;;;;;;;14.59;67.50;99359.88;4948343;28;20026;-86
2022/04/27 05:57:57;;;;;;;17.92;9.80;;;;;;;14.75;67.30;99372.94;4997244;28;20101;-90
2022/04/27 06:00:24;;;;;;;23.65;11.65;;;;;;;14.75;66.52;99375.63;4966028;28;20022;-94
2022/04/27 06:02:49;;;;;;;18.33;9.77;;;;;;;14.97;66.38;99382.31;4969851;28;20117;-91
2022/04/27 06:05:15;;;;;;;25.88;11.82;;;;;;;14.99;65.73;99363.03;4964630;28;20080;-87
2022/04/27 06:07:41;;;;;;;19.70;10.10;;;;;;;15.18;65.49;99382.75;4961640;28;20023;-88
2022/04/27 06:10:08;;;;;;;23.98;10.35;;;;;;;15.42;64.44;99385.31;4981424;28;20028;-92
2022/04/27 06:12:37;;;;;;;22.25;9.52;;;;;;;15.50;63.02;99375.66;4960622;28;20018;-90
2022/04/27 06:15:03;;;;;;;20.23;9.00;;;;;;;15.76;62.27;99397.72;4986395;28;20044;-88
2022/04/27 06:17:29;;;;;;;15.60;9.20;;;;;;;15.72;62.05;99389.38;4971773;28;20065;-86
2022/04/27 06:19:55;;;;;;;12.65;7.50;;;;;;;15.89;60.79;99390.66;4982795;28;20022;-87
2022/04/27 06:22:20;;;;;;;25.33;8.10;;;;;;;15.94;61.79;99385.13;4979122;28;20041;-88
2022/04/27 06:24:46;;;;;;;18.92;7.78;;;;;;;15.97;60.77;99376.38;4980968;28;20077;-89
2022/04/27 06:27:11;;;;;;;12.48;7.15;;;;;;;16.12;60.25;99373.34;4978272;28;20025;-89
2022/04/27 06:29:38;;;;;;;13.20;7.45;;;;;;;16.34;59.48;99386.16;4982951;28;20045;-90
2022/04/27 06:32:04;;;;;;;10.90;6.60;;;;;;;16.29;59.18;99380.03;4999999;28;20106;-89
2022/04/27 06:34:29;;;;;;;17.20;6.70;;;;;;;16.53;58.75;99379.75;4971449;28;20056;-90
2022/04/27 06:36:55;;;;;;;14.25;6.93;;;;;;;16.60;57.72;99374.72;4964415;28;20030;-88
2022/04/27 06:39:21;;;;;;;18.30;8.27;;;;;;;16.81;58.24;99385.91;4982412;28;20022;-86
2022/04/27 06:41:46;;;;;;;18.50;6.65;;;;;;;16.91;58.00;99380.22;4998467;28;20108;-87
2022/04/27 06:44:12;;;;;;;23.50;10.55;;;;;;;16.93;58.07;99379.91;4967532;28;20057;-93
2022/04/27 06:46:38;;;;;;;19.30;9.68;;;;;;;17.14;57.17;99372.84;4985469;28;20030;-91
2022/04/27 06:49:03;;;;;;;24.77;10.25;;;;;;;17.22;55.53;99376.69;4969294;28;20018;-94
2022/04/27 06:51:29;;;;;;;38.80;14.10;;;;;;;17.40;55.59;99396.66;4964158;28;20036;-90
2022/04/27 06:53:55;;;;;;;32.55;12.27;;;;;;;17.40;55.93;99383.03;4950674;28;20081;-91
2022/04/27 06:56:20;;;;;;;22.83;9.02;;;;;;;17.53;55.30;99384.06;4949197;28;20523;-89
2022/04/27 06:58:46;;;;;;;28.77;8.30;;;;;;;17.58;56.72;99379.28;4949866;28;20030;-90
2022/04/27 07:01:13;;;;;;;32.63;10.18;;;;;;;17.64;56.41;99399.00;4952572;28;20031;-92
2022/04/27 07:03:39;;;;;;;19.52;8.07;;;;;;;17.64;57.27;99388.13;4954985;28;20091;-92
2022/04/27 07:06:08;;;;;;;20.25;6.88;;;;;;;17.60;57.00;99373.53;4954766;28;20094;-92
2022/04/27 07:09:43;;;;;;;21.77;6.22;;;;;;;18.09;55.59;99411.66;4972250;28;20440;-92
2022/04/27 07:12:08;;;;;;;9.13;4.10;;;;;;;18.15;54.03;99377.69;4989341;28;20038;-92
2022/04/27 07:18:18;;;;;;;10.43;5.00;;;;;;;18.72;51.83;99413.00;4883442;29;20041;-95
2022/04/27 07:21:41;;;;;;;15.88;4.82;;;;;;;18.89;50.83;99386.84;4928826;29;20031;-92
2022/04/27 07:24:07;;;;;;;14.02;3.13;;;;;;;19.00;47.01;99393.56;4931304;29;20039;-92
2022/04/27 07:26:34;;;;;;;3.85;1.90;;;;;;;19.10;44.66;99386.97;4918095;29;20054;-92
2022/04/27 07:29:03;;;;;;;13.05;2.95;;;;;;;19.31;44.95;99406.97;4968486;28;20034;-95
2022/04/27 07:31:32;;;;;;;9.88;6.78;;;;;;;19.39;43.34;99386.22;4982486;28;20025;-94
2022/04/27 07:34:23;;;;;;;12.52;2.60;;;;;;;19.41;44.78;99369.53;4978480;28;20029;-95
2022/04/27 07:36:50;;;;;;;7.28;2.72;;;;;;;19.56;46.26;99396.28;5014605;28;20147;-95
2022/04/27 07:39:16;;;;;;;12.63;3.20;;;;;;;19.70;46.14;99385.13;4976991;28;20124;-93
2022/04/27 07:41:45;;;;;;;5.25;2.60;;;;;;;19.66;46.36;99385.00;4975949;28;20026;-92
2022/04/27 07:44:13;;;;;;;8.07;2.67;;;;;;;19.88;46.31;99400.34;4991530;28;20455;-94
2022/04/27 07:46:47;;;;;;;9.98;2.83;;;;;;;19.92;46.52;99409.50;4975582;28;20029;-95
2022/04/27 07:49:14;;;;;;;195.05;125.97;;;;;;;19.89;46.78;99398.41;4975354;28;20022;-96
2022/04/27 07:51:40;;;;;;;11.75;3.47;;;;;;;19.92;47.17;99386.81;4991493;28;20024;-90
2022/04/27 07:54:06;;;;;;;6.55;2.50;;;;;;;19.88;46.36;99364.81;4974197;28;20038;-92
2022/04/27 07:56:34;;;;;;;15.52;3.03;;;;;;;20.16;46.44;99389.72;4973362;28;20090;-95
2022/04/27 07:58:59;;;;;;;17.60;3.92;;;;;;;20.09;47.76;99377.72;4973343;28;20030;-90
2022/04/27 08:01:35;;;;;;;4.93;2.45;;;;;;;20.18;47.42;99372.97;4999146;28;20026;-92
2022/04/27 08:04:19;;;;;;;8.55;3.83;;;;;;;20.24;47.44;99370.84;4988566;28;20032;-92
2022/04/27 08:07:02;;;;;;;6.57;2.17;;;;;;;20.38;48.44;99376.88;5002979;28;20049;-90
2022/04/27 08:09:28;;;;;;;5.75;2.30;;;;;;;20.37;47.02;99364.31;4991607;28;20049;-91
2022/04/27 08:11:54;;;;;;;7.00;2.30;;;;;;;20.57;47.82;99374.44;4972693;28;20029;-95
2022/04/27 08:14:31;;;;;;;6.95;2.10;;;;;;;20.76;47.76;99384.13;4974677;28;20403;-93
2022/04/27 08:16:59;;;;;;;7.88;3.20;;;;;;;20.82;47.71;99387.47;4978598;28;20046;-92
2022/04/27 08:19:28;;;;;;;21.80;3.85;;;;;;;20.85;46.87;99371.16;4987288;28;20022;-93
2022/04/27 08:22:08;;;;;;;15.93;4.03;;;;;;;20.97;46.12;99362.97;4999169;28;20104;-94
2022/04/27 08:24:40;;;;;;;8.38;2.80;;;;;;;21.08;45.42;99368.81;4994841;28;20563;-91
2022/04/27 08:27:05;;;;;;;5.25;2.28;;;;;;;21.09;44.65;99370.44;4978084;28;20025;-95
2022/04/27 08:29:32;;;;;;;3.85;1.98;;;;;;;21.16;45.80;99356.19;4978511;28;20076;-93
2022/04/27 08:31:57;;;;;;;5.68;3.17;;;;;;;21.28;45.94;99363.63;4993479;28;20037;-96
2022/04/27 08:34:39;;;;;;;15.35;2.60;;;;;;;21.18;46.80;99343.72;4977159;28;20030;-95
2022/04/27 08:37:29;;;;;;;3.05;2.03;;;;;;;21.19;46.41;99352.78;4982709;28;20030;-94
2022/04/27 08:40:01;;;;;;;4.05;2.17;;;;;;;21.37;46.50;99350.59;5118005;23;20042;-96
2022/04/27 08:42:29;;;;;;;9.70;2.72;;;;;;;21.48;45.95;99354.53;5010035;28;20027;-94
2022/04/27 08:44:54;;;;;;;8.25;2.83;;;;;;;21.39;44.96;99335.44;4990344;28;20018;-93
2022/04/27 08:47:20;;;;;;;6.97;1.88;;;;;;;21.51;44.04;99347.56;4987765;28;20038;-90
2022/04/27 08:49:49;;;;;;;5.93;1.95;;;;;;;21.42;43.76;99336.72;4986509;28;20477;-95
2022/04/27 08:52:15;;;;;;;6.90;1.90;;;;;;;21.75;42.88;99357.75;5007378;28;20018;-94
2022/04/27 08:54:41;;;;;;;8.77;2.40;;;;;;;21.85;42.71;99360.00;5013485;28;20129;-94
2022/04/27 08:57:10;;;;;;;6.45;2.10;;;;;;;21.77;42.30;99347.22;4988582;28;20061;-95
2022/04/27 08:59:40;;;;;;;4.82;1.52;;;;;;;21.82;41.91;99333.28;4989835;28;20117;-96
2022/04/27 09:02:26;;;;;;;5.05;2.05;;;;;;;22.11;42.17;99356.88;5008019;28;20587;-91
2022/04/27 09:05:05;;;;;;;5.40;1.92;;;;;;;22.20;40.89;99354.81;4991802;28;20046;-93
2022/04/27 09:07:56;;;;;;;3.95;1.77;;;;;;;22.12;40.41;99339.28;4992678;28;20456;-96
2022/04/27 09:10:24;;;;;;;5.20;1.88;;;;;;;22.17;39.92;99324.53;5025972;28;20504;-96
2022/04/27 09:13:03;;;;;;;4.57;1.55;;;;;;;22.08;38.73;99310.13;4989718;28;20043;-95
2022/04/27 09:15:34;;;;;;;9.25;3.60;;;;;;;22.30;39.01;99317.09;4990884;28;20039;-96
2022/04/27 09:20:54;;;;;;;4.03;1.83;;;;;;;22.62;38.15;99328.16;4996583;28;19921;-95
2022/04/27 09:23:52;;;;;;;5.43;1.70;;;;;;;22.68;38.33;99324.00;4986451;28;20030;-94
2022/04/27 09:26:28;;;;;;;7.07;1.60;;;;;;;22.65;37.06;99311.78;4971225;28;20027;-95
2022/04/27 09:28:56;;;;;;;6.70;1.90;;;;;;;22.69;36.65;99295.41;4970072;28;20030;-96
2022/04/27 09:31:32;;;;;;;10.77;3.22;;;;;;;22.76;36.88;99298.34;4967421;28;20062;-94
2022/04/27 09:34:27;;;;;;;5.47;1.83;;;;;;;22.86;36.18;99297.81;4968292;28;20026;-94
2022/04/27 09:37:04;;;;;;;3.53;1.40;;;;;;;22.80;36.19;99291.00;4982189;28;20030;-96
2022/04/27 09:39:30;;;;;;;3.65;1.70;;;;;;;22.69;36.93;99284.44;4983828;28;20497;-95
2022/04/27 09:42:06;;;;;;;3.95;1.30;;;;;;;22.95;35.92;99308.63;4968620;28;20042;-93
2022/04/27 09:44:35;;;;;;;13.18;3.35;;;;;;;22.95;36.45;99295.72;4968371;28;20022;-92
2022/04/27 09:47:04;;;;;;;4.63;1.50;;;;;;;23.12;36.52;99302.84;4986436;28;20036;-90
2022/04/27 09:49:41;;;;;;;6.90;1.70;;;;;;;23.10;35.47;99290.63;5006393;28;20022;-95
2022/04/27 09:52:07;;;;;;;5.35;1.40;;;;;;;23.25;34.72;99311.00;4991651;28;20022;-93
2022/04/27 09:54:36;;;;;;;10.73;2.38;;;;;;;23.23;36.56;99305.84;4988960;28;20060;-90
2022/04/27 09:57:31;;;;;;;5.68;2.00;;;;;;;23.27;35.27;99293.00;4990115;28;20053;-95
2022/04/27 09:59:59;;;;;;;13.15;2.08;;;;;;;23.22;34.99;99285.00;4991359;28;20040;-91
2022/04/27 10:02:27;;;;;;;7.78;2.03;;;;;;;23.29;34.64;99284.41;5004107;28;20034;-90
2022/04/27 10:04:53;;;;;;;6.82;2.90;;;;;;;23.33;34.84;99277.84;4981419;28;20032;-92
2022/04/27 10:07:23;;;;;;;9.27;2.47;;;;;;;23.40;34.81;99283.50;4988050;28;20026;-90
2022/04/27 10:09:52;;;;;;;5.95;2.17;;;;;;;23.39;34.42;99275.63;5002051;28;20053;-91
2022/04/27 10:12:17;;;;;;;7.15;1.67;;;;;;;23.51;35.39;99294.75;5014687;28;20045;-91
2022/04/27 10:14:45;;;;;;;6.40;2.45;;;;;;;23.72;34.67;99290.88;4988363;28;20081;-91
2022/04/27 10:17:17;;;;;;;3.30;1.30;;;;;;;23.53;34.25;99270.47;4984862;28;20014;-89
2022/04/27 10:20:02;;;;;;;5.18;1.50;;;;;;;23.65;34.08;99263.25;5005820;28;20497;-92
2022/04/27 10:22:31;;;;;;;24.60;3.42;;;;;;;23.66;34.84;99259.31;4993867;28;20018;-93
2022/04/27 10:24:59;;;;;;;8.52;2.40;;;;;;;23.76;35.47;99262.34;4968827;28;20038;-94
2022/04/27 10:27:39;;;;;;;7.00;1.70;;;;;;;23.95;34.06;99277.28;4987349;28;20057;-95
2022/04/27 10:30:17;;;;;;;10.82;2.83;;;;;;;23.84;34.23;99266.03;4996281;28;20030;-95
2022/04/27 10:32:46;;;;;;;14.85;7.65;;;;;;;24.08;32.95;99275.19;4994181;28;20050;-95
2022/04/27 10:35:11;;;;;;;7.47;2.33;;;;;;;24.09;32.36;99287.78;5008499;28;20029;-94
2022/04/27 10:37:51;;;;;;;4.03;1.38;;;;;;;24.09;32.36;99272.06;5020309;28;20061;-90
2022/04/27 10:40:42;;;;;;;8.30;2.20;;;;;;;23.98;32.19;99241.59;5009716;28;20066;-95
2022/04/27 10:43:10;;;;;;;4.65;1.40;;;;;;;24.26;32.92;99273.59;4990749;28;20030;-89
2022/04/27 10:45:40;;;;;;;8.35;2.47;;;;;;;24.31;32.41;99270.53;5033533;28;20054;-92
2022/04/27 10:48:07;;;;;;;7.95;1.52;;;;;;;24.12;32.59;99245.81;4991176;28;20022;-89
2022/04/27 10:50:34;;;;;;;9.85;2.13;;;;;;;24.15;32.65;99242.31;5003232;28;20022;-87
2022/04/27 10:53:15;;;;;;;6.82;2.22;;;;;;;24.24;32.46;99270.41;5008817;28;20026;-90
2022/04/27 10:55:48;;;;;;;10.23;1.73;;;;;;;24.24;32.25;99248.41;5008874;28;20146;-88
2022/04/27 10:58:23;;;;;;;5.80;1.50;;;;;;;24.32;31.70;99246.56;5015646;28;20435;-89
2022/04/27 11:01:01;;;;;;;8.88;1.90;;;;;;;24.49;31.85;99259.91;4990514;28;20038;-90
2022/04/27 11:03:36;;;;;;;6.85;1.70;;;;;;;24.43;31.37;99233.03;4998359;28;20030;-91
2022/04/27 11:06:06;;;;;;;10.50;1.92;;;;;;;24.45;30.68;99233.47;5011319;28;20027;-91
2022/04/27 11:08:56;;;;;;;10.02;1.75;;;;;;;24.58;31.47;99254.16;4990544;28;20080;-91
2022/04/27 11:11:24;;;;;;;6.55;2.08;;;;;;;24.67;30.95;99229.94;5010136;28;20044;-89
2022/04/27 11:13:49;;;;;;;36.50;27.88;;;;;;;24.81;31.36;99237.66;5002264;28;20033;-88
2022/04/27 11:16:15;;;;;;;7.90;2.83;;;;;;;24.87;31.14;99227.91;5004517;28;20025;-89
2022/04/27 11:18:50;;;;;;;4.38;1.80;;;;;;;25.06;31.14;99243.56;5006846;28;20029;-88
2022/04/27 11:21:17;;;;;;;11.25;5.03;;;;;;;25.01;31.42;99228.16;5008001;28;20022;-90
2022/04/27 11:23:43;;;;;;;11.43;3.25;;;;;;;25.11;30.92;99226.75;4989844;28;20022;-89
2022/04/27 11:26:08;;;;;;;4.63;1.60;;;;;;;25.32;30.48;99242.84;4998330;28;20391;-90
2022/04/27 11:28:35;;;;;;;11.60;2.83;;;;;;;25.47;30.41;99227.28;4989632;28;20018;-88
2022/04/27 11:31:01;;;;;;;5.43;1.50;;;;;;;25.79;29.30;99233.25;5000819;28;20045;-90
2022/04/27 11:33:27;;;;;;;8.10;1.75;;;;;;;25.86;28.99;99199.44;4988412;28;20021;-88
2022/04/27 11:35:52;;;;;;;13.27;2.42;;;;;;;26.15;30.13;99210.84;4980848;28;20025;-90
2022/04/27 11:38:21;;;;;;;15.95;2.70;;;;;;;26.42;28.23;99214.28;5011751;28;20034;-87
2022/04/27 11:40:49;;;;;;;10.82;2.10;;;;;;;26.70;26.54;99212.97;4974407;28;20042;-88
2022/04/27 11:43:27;;;;;;;6.90;2.50;;;;;;;26.86;26.57;99201.69;4957619;28;20490;-87
2022/04/27 11:45:54;;;;;;;10.70;1.63;;;;;;;26.85;26.47;99200.88;4983784;28;20109;-88
2022/04/27 11:48:25;;;;;;;25.42;14.00;;;;;;;26.87;27.16;99195.75;5002182;28;20022;-92
2022/04/27 11:50:54;;;;;;;8.05;2.00;;;;;;;26.60;28.49;99208.94;4981675;28;20030;-96
2022/04/27 11:54:10;;;;;;;14.82;2.10;;;;;;;26.69;28.99;99203.91;4986541;28;20042;-93